sensor_id;sensor_type;location;lat;lon;timestamp;temperature;humidity
5743;DHT22;2896;53.500;10.020;2024-03-02T00:00:14;8.00;99.90
5743;DHT22;2896;53.500;10.020;2024-03-02T00:02:41;8.00;99.90
5743;DHT22;2896;53.500;10.020;2024-03-02T00:05:11;8.00;99.90
5743;DHT22;2896;53.500;10.020;2024-03-02T00:07:41;7.90;99.90
5743;DHT22;2896;53.500;10.020;2024-03-02T00:10:09;7.90;99.90
5743;DHT22;2896;53.500;10.020;2024-03-02T00:12:37;7.90;99.90
5743;DHT22;2896;53.500;10.020;2024-03-02T00:15:06;7.90;99.90
5743;DHT22;2896;53.500;10.020;2024-03-02T00:17:42;8.00;99.90
5743;DHT22;2896;53.500;10.020;2024-03-02T00:20:11;8.00;99.90
5743;DHT22;2896;53.500;10.020;2024-03-02T00:22:43;8.20;99.90
5743;DHT22;2896;53.500;10.020;2024-03-02T00:25:10;8.20;99.90
5743;DHT22;2896;53.500;10.020;2024-03-02T00:27:37;8.10;99.90
5743;DHT22;2896;53.500;10.020;2024-03-02T00:30:36;8.10;99.90
5743;DHT22;2896;53.500;10.020;2024-03-02T00:33:08;8.20;99.90
5743;DHT22;2896;53.500;10.020;2024-03-02T00:35:36;8.20;99.90
5743;DHT22;2896;53.500;10.020;2024-03-02T00:38:04;8.20;99.90
5743;DHT22;2896;53.500;10.020;2024-03-02T00:40:31;8.20;99.90
5743;DHT22;2896;53.500;10.020;2024-03-02T00:42:59;8.20;99.90
5743;DHT22;2896;53.500;10.020;2024-03-02T00:45:25;8.10;99.90
5743;DHT22;2896;53.500;10.020;2024-03-02T00:47:52;8.20;99.90
5743;DHT22;2896;53.500;10.020;2024-03-02T00:50:19;8.10;99.90
5743;DHT22;2896;53.500;10.020;2024-03-02T00:52:48;8.20;99.90
5743;DHT22;2896;53.500;10.020;2024-03-02T00:55:15;8.20;99.90
5743;DHT22;2896;53.500;10.020;2024-03-02T00:57:42;8.30;99.90
5743;DHT22;2896;53.500;10.020;2024-03-02T01:00:10;8.10;99.90
5743;DHT22;2896;53.500;10.020;2024-03-02T01:02:40;8.10;99.90
5743;DHT22;2896;53.500;10.020;2024-03-02T01:05:08;8.10;99.90
5743;DHT22;2896;53.500;10.020;2024-03-02T01:07:34;8.10;99.90
5743;DHT22;2896;53.500;10.020;2024-03-02T01:10:02;8.10;99.90
5743;DHT22;2896;53.500;10.020;2024-03-02T01:12:29;8.00;99.90
5743;DHT22;2896;53.500;10.020;2024-03-02T01:14:56;7.90;99.90
5743;DHT22;2896;53.500;10.020;2024-03-02T01:17:22;7.80;99.90
5743;DHT22;2896;53.500;10.020;2024-03-02T01:19:49;7.80;99.90
5743;DHT22;2896;53.500;10.020;2024-03-02T01:22:15;7.80;99.90
5743;DHT22;2896;53.500;10.020;2024-03-02T01:24:43;7.70;99.90
5743;DHT22;2896;53.500;10.020;2024-03-02T01:27:11;7.70;99.90
5743;DHT22;2896;53.500;10.020;2024-03-02T01:29:37;7.70;99.90
5743;DHT22;2896;53.500;10.020;2024-03-02T01:32:05;7.60;99.90
5743;DHT22;2896;53.500;10.020;2024-03-02T01:34:31;7.70;99.90
5743;DHT22;2896;53.500;10.020;2024-03-02T01:36:58;7.80;99.90
5743;DHT22;2896;53.500;10.020;2024-03-02T01:39:24;7.90;99.90
5743;DHT22;2896;53.500;10.020;2024-03-02T01:41:51;7.80;99.90
5743;DHT22;2896;53.500;10.020;2024-03-02T01:44:19;7.80;99.90
5743;DHT22;2896;53.500;10.020;2024-03-02T01:46:46;7.70;99.90
5743;DHT22;2896;53.500;10.020;2024-03-02T01:49:12;7.70;99.90
5743;DHT22;2896;53.500;10.020;2024-03-02T01:51:39;7.70;99.90
5743;DHT22;2896;53.500;10.020;2024-03-02T01:54:05;7.60;99.90
5743;DHT22;2896;53.500;10.020;2024-03-02T01:56:32;7.60;99.90
5743;DHT22;2896;53.500;10.020;2024-03-02T01:58:59;7.60;99.90
5743;DHT22;2896;53.500;10.020;2024-03-02T02:01:27;7.50;99.90
5743;DHT22;2896;53.500;10.020;2024-03-02T02:03:53;7.50;99.90
5743;DHT22;2896;53.500;10.020;2024-03-02T02:06:21;7.50;99.90
5743;DHT22;2896;53.500;10.020;2024-03-02T02:08:47;7.50;99.90
5743;DHT22;2896;53.500;10.020;2024-03-02T02:11:15;7.50;99.90
5743;DHT22;2896;53.500;10.020;2024-03-02T02:13:41;7.60;99.90
5743;DHT22;2896;53.500;10.020;2024-03-02T02:16:08;7.50;99.90
5743;DHT22;2896;53.500;10.020;2024-03-02T02:18:36;7.70;99.90
5743;DHT22;2896;53.500;10.020;2024-03-02T02:21:03;7.60;99.90
5743;DHT22;2896;53.500;10.020;2024-03-02T02:23:31;7.50;99.90
5743;DHT22;2896;53.500;10.020;2024-03-02T02:25:58;7.50;99.90
5743;DHT22;2896;53.500;10.020;2024-03-02T02:28:24;7.60;99.90
5743;DHT22;2896;53.500;10.020;2024-03-02T02:30:51;7.60;99.90
5743;DHT22;2896;53.500;10.020;2024-03-02T02:33:17;7.60;99.90
5743;DHT22;2896;53.500;10.020;2024-03-02T02:35:44;7.70;99.90
5743;DHT22;2896;53.500;10.020;2024-03-02T02:38:11;7.60;99.90
5743;DHT22;2896;53.500;10.020;2024-03-02T02:40:39;7.70;99.90
5743;DHT22;2896;53.500;10.020;2024-03-02T02:43:05;7.60;99.90
5743;DHT22;2896;53.500;10.020;2024-03-02T02:45:32;7.50;99.90
5743;DHT22;2896;53.500;10.020;2024-03-02T02:47:59;7.50;99.90
5743;DHT22;2896;53.500;10.020;2024-03-02T02:50:27;7.70;99.90
5743;DHT22;2896;53.500;10.020;2024-03-02T02:52:53;7.50;99.90
5743;DHT22;2896;53.500;10.020;2024-03-02T02:55:20;7.50;99.90
5743;DHT22;2896;53.500;10.020;2024-03-02T02:57:48;7.50;99.90
5743;DHT22;2896;53.500;10.020;2024-03-02T03:00:15;7.50;99.90
5743;DHT22;2896;53.500;10.020;2024-03-02T03:02:45;7.40;99.90
5743;DHT22;2896;53.500;10.020;2024-03-02T03:05:13;7.70;99.90
5743;DHT22;2896;53.500;10.020;2024-03-02T03:07:40;7.40;99.90
5743;DHT22;2896;53.500;10.020;2024-03-02T03:10:08;7.40;99.90
5743;DHT22;2896;53.500;10.020;2024-03-02T03:12:34;7.40;99.90
5743;DHT22;2896;53.500;10.020;2024-03-02T03:15:03;7.30;99.90
5743;DHT22;2896;53.500;10.020;2024-03-02T03:17:32;7.40;99.90
5743;DHT22;2896;53.500;10.020;2024-03-02T03:19:58;7.40;99.90
5743;DHT22;2896;53.500;10.020;2024-03-02T03:22:26;7.50;99.90
5743;DHT22;2896;53.500;10.020;2024-03-02T03:24:52;7.40;99.90
5743;DHT22;2896;53.500;10.020;2024-03-02T03:27:19;7.40;99.90
5743;DHT22;2896;53.500;10.020;2024-03-02T03:29:46;7.40;99.90
5743;DHT22;2896;53.500;10.020;2024-03-02T03:32:14;7.30;99.90
5743;DHT22;2896;53.500;10.020;2024-03-02T03:34:42;7.30;99.90
5743;DHT22;2896;53.500;10.020;2024-03-02T03:37:08;7.30;99.90
5743;DHT22;2896;53.500;10.020;2024-03-02T03:39:35;7.40;99.90
5743;DHT22;2896;53.500;10.020;2024-03-02T03:42:02;7.30;99.90
5743;DHT22;2896;53.500;10.020;2024-03-02T03:44:29;7.70;99.90
5743;DHT22;2896;53.500;10.020;2024-03-02T03:46:55;7.40;99.90
5743;DHT22;2896;53.500;10.020;2024-03-02T03:49:23;7.40;99.90
5743;DHT22;2896;53.500;10.020;2024-03-02T03:51:50;7.30;99.90
5743;DHT22;2896;53.500;10.020;2024-03-02T03:56:44;7.30;99.90
5743;DHT22;2896;53.500;10.020;2024-03-02T04:01:38;7.30;99.90
5743;DHT22;2896;53.500;10.020;2024-03-02T04:06:33;7.30;99.90
5743;DHT22;2896;53.500;10.020;2024-03-02T04:09:00;7.30;99.90
5743;DHT22;2896;53.500;10.020;2024-03-02T04:11:26;7.30;99.90
5743;DHT22;2896;53.500;10.020;2024-03-02T04:13:53;7.30;99.90
5743;DHT22;2896;53.500;10.020;2024-03-02T04:18:47;7.30;99.90
5743;DHT22;2896;53.500;10.020;2024-03-02T04:21:13;7.30;99.90
5743;DHT22;2896;53.500;10.020;2024-03-02T04:23:41;7.30;99.90
5743;DHT22;2896;53.500;10.020;2024-03-02T04:33:29;7.30;99.90
5743;DHT22;2896;53.500;10.020;2024-03-02T04:35:55;7.20;99.90
5743;DHT22;2896;53.500;10.020;2024-03-02T04:38:23;7.10;99.90
5743;DHT22;2896;53.500;10.020;2024-03-02T04:40:51;7.10;99.90
5743;DHT22;2896;53.500;10.020;2024-03-02T04:43:17;7.10;99.90
5743;DHT22;2896;53.500;10.020;2024-03-02T04:45:44;7.00;99.90
5743;DHT22;2896;53.500;10.020;2024-03-02T04:48:11;7.00;99.90
5743;DHT22;2896;53.500;10.020;2024-03-02T04:50:38;7.00;99.90
5743;DHT22;2896;53.500;10.020;2024-03-02T04:53:05;6.90;99.90
5743;DHT22;2896;53.500;10.020;2024-03-02T04:55:31;6.90;99.90
5743;DHT22;2896;53.500;10.020;2024-03-02T04:58:17;6.80;99.90
5743;DHT22;2896;53.500;10.020;2024-03-02T05:00:43;6.80;99.90
5743;DHT22;2896;53.500;10.020;2024-03-02T05:03:11;6.80;99.90
5743;DHT22;2896;53.500;10.020;2024-03-02T05:05:38;6.80;99.90
5743;DHT22;2896;53.500;10.020;2024-03-02T05:08:05;6.70;99.90
5743;DHT22;2896;53.500;10.020;2024-03-02T05:10:32;6.80;99.90
5743;DHT22;2896;53.500;10.020;2024-03-02T05:12:58;6.80;99.90
5743;DHT22;2896;53.500;10.020;2024-03-02T05:15:26;6.90;99.90
5743;DHT22;2896;53.500;10.020;2024-03-02T05:17:53;6.90;99.90
5743;DHT22;2896;53.500;10.020;2024-03-02T05:20:19;7.00;99.90
5743;DHT22;2896;53.500;10.020;2024-03-02T05:25:13;6.90;99.90
5743;DHT22;2896;53.500;10.020;2024-03-02T05:27:40;6.90;99.90
5743;DHT22;2896;53.500;10.020;2024-03-02T05:30:08;6.90;99.90
5743;DHT22;2896;53.500;10.020;2024-03-02T05:32:36;6.90;99.90
5743;DHT22;2896;53.500;10.020;2024-03-02T05:35:04;6.90;99.90
5743;DHT22;2896;53.500;10.020;2024-03-02T05:37:31;6.90;99.90
5743;DHT22;2896;53.500;10.020;2024-03-02T05:39:57;6.90;99.90
5743;DHT22;2896;53.500;10.020;2024-03-02T05:42:24;6.80;99.90
5743;DHT22;2896;53.500;10.020;2024-03-02T05:44:52;6.90;99.90
5743;DHT22;2896;53.500;10.020;2024-03-02T05:47:19;7.00;99.90
5743;DHT22;2896;53.500;10.020;2024-03-02T05:49:46;7.00;99.90
5743;DHT22;2896;53.500;10.020;2024-03-02T05:54:40;6.90;99.90
5743;DHT22;2896;53.500;10.020;2024-03-02T05:57:07;6.80;99.90
5743;DHT22;2896;53.500;10.020;2024-03-02T05:59:53;6.80;99.90
5743;DHT22;2896;53.500;10.020;2024-03-02T06:02:19;6.70;99.90
5743;DHT22;2896;53.500;10.020;2024-03-02T06:04:47;6.70;99.90
5743;DHT22;2896;53.500;10.020;2024-03-02T06:07:14;6.70;99.90
5743;DHT22;2896;53.500;10.020;2024-03-02T06:09:41;6.70;99.90
5743;DHT22;2896;53.500;10.020;2024-03-02T06:12:07;6.70;99.90
5743;DHT22;2896;53.500;10.020;2024-03-02T06:14:34;6.80;99.90
5743;DHT22;2896;53.500;10.020;2024-03-02T06:17:01;6.80;99.90
5743;DHT22;2896;53.500;10.020;2024-03-02T06:19:27;6.80;99.90
5743;DHT22;2896;53.500;10.020;2024-03-02T06:21:55;6.80;99.90
5743;DHT22;2896;53.500;10.020;2024-03-02T06:24:22;6.70;99.90
5743;DHT22;2896;53.500;10.020;2024-03-02T06:26:49;6.80;99.90
5743;DHT22;2896;53.500;10.020;2024-03-02T06:29:15;6.80;99.90
5743;DHT22;2896;53.500;10.020;2024-03-02T06:34:09;6.80;99.90
5743;DHT22;2896;53.500;10.020;2024-03-02T06:36:35;6.80;99.90
5743;DHT22;2896;53.500;10.020;2024-03-02T06:39:03;6.80;99.90
5743;DHT22;2896;53.500;10.020;2024-03-02T06:41:30;6.90;99.90
5743;DHT22;2896;53.500;10.020;2024-03-02T06:43:57;6.80;99.90
5743;DHT22;2896;53.500;10.020;2024-03-02T06:46:25;6.80;99.90
5743;DHT22;2896;53.500;10.020;2024-03-02T06:48:52;6.70;99.90
5743;DHT22;2896;53.500;10.020;2024-03-02T06:51:18;6.80;99.90
5743;DHT22;2896;53.500;10.020;2024-03-02T06:53:45;6.80;99.90
5743;DHT22;2896;53.500;10.020;2024-03-02T06:56:13;6.80;99.90
5743;DHT22;2896;53.500;10.020;2024-03-02T06:58:40;6.90;99.90
5743;DHT22;2896;53.500;10.020;2024-03-02T07:01:08;7.00;99.90
5743;DHT22;2896;53.500;10.020;2024-03-02T07:03:35;7.00;99.90
5743;DHT22;2896;53.500;10.020;2024-03-02T07:06:02;7.00;99.90
5743;DHT22;2896;53.500;10.020;2024-03-02T07:08:28;6.90;99.90
5743;DHT22;2896;53.500;10.020;2024-03-02T07:10:55;6.90;99.90
5743;DHT22;2896;53.500;10.020;2024-03-02T07:13:24;7.00;99.90
5743;DHT22;2896;53.500;10.020;2024-03-02T07:18:46;7.10;99.90
5743;DHT22;2896;53.500;10.020;2024-03-02T07:21:17;7.20;99.90
5743;DHT22;2896;53.500;10.020;2024-03-02T07:23:43;7.20;99.90
5743;DHT22;2896;53.500;10.020;2024-03-02T07:26:10;7.30;99.90
5743;DHT22;2896;53.500;10.020;2024-03-02T07:28:38;7.40;99.90
5743;DHT22;2896;53.500;10.020;2024-03-02T07:33:33;7.50;99.90
5743;DHT22;2896;53.500;10.020;2024-03-02T07:36:00;7.50;99.90
5743;DHT22;2896;53.500;10.020;2024-03-02T07:38:27;7.70;99.90
5743;DHT22;2896;53.500;10.020;2024-03-02T07:40:54;7.80;99.90
5743;DHT22;2896;53.500;10.020;2024-03-02T07:43:22;7.80;99.90
5743;DHT22;2896;53.500;10.020;2024-03-02T07:45:50;7.90;99.90
5743;DHT22;2896;53.500;10.020;2024-03-02T07:48:16;7.90;99.90
5743;DHT22;2896;53.500;10.020;2024-03-02T07:53:10;7.90;99.90
5743;DHT22;2896;53.500;10.020;2024-03-02T07:55:37;7.90;99.90
5743;DHT22;2896;53.500;10.020;2024-03-02T07:58:03;8.00;99.90
5743;DHT22;2896;53.500;10.020;2024-03-02T08:00:30;8.00;99.90
5743;DHT22;2896;53.500;10.020;2024-03-02T08:02:58;8.10;99.90
5743;DHT22;2896;53.500;10.020;2024-03-02T08:05:25;8.10;99.90
5743;DHT22;2896;53.500;10.020;2024-03-02T08:07:52;8.10;99.90
5743;DHT22;2896;53.500;10.020;2024-03-02T08:10:19;8.20;99.90
5743;DHT22;2896;53.500;10.020;2024-03-02T08:12:45;8.20;99.90
5743;DHT22;2896;53.500;10.020;2024-03-02T08:15:12;8.30;99.90
5743;DHT22;2896;53.500;10.020;2024-03-02T08:17:39;8.30;99.90
5743;DHT22;2896;53.500;10.020;2024-03-02T08:20:12;8.30;99.90
5743;DHT22;2896;53.500;10.020;2024-03-02T08:22:39;8.30;99.90
5743;DHT22;2896;53.500;10.020;2024-03-02T08:25:07;8.40;99.90
5743;DHT22;2896;53.500;10.020;2024-03-02T08:27:34;8.50;99.90
5743;DHT22;2896;53.500;10.020;2024-03-02T08:30:01;8.50;99.90
5743;DHT22;2896;53.500;10.020;2024-03-02T08:32:29;8.50;99.90
5743;DHT22;2896;53.500;10.020;2024-03-02T08:34:55;8.60;99.90
5743;DHT22;2896;53.500;10.020;2024-03-02T08:37:23;8.60;99.90
5743;DHT22;2896;53.500;10.020;2024-03-02T08:39:50;8.70;99.90
5743;DHT22;2896;53.500;10.020;2024-03-02T08:42:16;8.80;99.90
5743;DHT22;2896;53.500;10.020;2024-03-02T08:44:44;8.90;99.90
5743;DHT22;2896;53.500;10.020;2024-03-02T08:47:10;8.90;99.90
5743;DHT22;2896;53.500;10.020;2024-03-02T08:49:37;9.10;99.90
5743;DHT22;2896;53.500;10.020;2024-03-02T08:52:04;9.20;99.90
5743;DHT22;2896;53.500;10.020;2024-03-02T08:54:32;9.30;99.90
5743;DHT22;2896;53.500;10.020;2024-03-02T08:56:59;9.40;99.90
5743;DHT22;2896;53.500;10.020;2024-03-02T08:59:26;9.50;99.90
5743;DHT22;2896;53.500;10.020;2024-03-02T09:04:20;9.70;99.90
5743;DHT22;2896;53.500;10.020;2024-03-02T09:06:46;10.00;99.90
5743;DHT22;2896;53.500;10.020;2024-03-02T09:09:13;10.00;99.90
5743;DHT22;2896;53.500;10.020;2024-03-02T09:11:41;10.30;99.90
5743;DHT22;2896;53.500;10.020;2024-03-02T09:14:08;10.40;99.90
5743;DHT22;2896;53.500;10.020;2024-03-02T09:16:34;10.70;99.90
5743;DHT22;2896;53.500;10.020;2024-03-02T09:19:01;10.70;99.90
5743;DHT22;2896;53.500;10.020;2024-03-02T09:21:28;10.80;99.90
5743;DHT22;2896;53.500;10.020;2024-03-02T09:23:55;10.90;99.90
5743;DHT22;2896;53.500;10.020;2024-03-02T09:26:21;11.00;99.90
5743;DHT22;2896;53.500;10.020;2024-03-02T09:28:49;11.00;99.90
5743;DHT22;2896;53.500;10.020;2024-03-02T09:31:16;11.10;99.90
5743;DHT22;2896;53.500;10.020;2024-03-02T09:33:42;11.10;99.90
5743;DHT22;2896;53.500;10.020;2024-03-02T09:36:17;11.20;99.90
5743;DHT22;2896;53.500;10.020;2024-03-02T09:38:44;11.20;99.90
5743;DHT22;2896;53.500;10.020;2024-03-02T09:41:10;11.20;99.90
5743;DHT22;2896;53.500;10.020;2024-03-02T09:43:37;11.40;99.90
5743;DHT22;2896;53.500;10.020;2024-03-02T09:46:05;11.50;99.90
5743;DHT22;2896;53.500;10.020;2024-03-02T09:48:32;11.60;99.90
5743;DHT22;2896;53.500;10.020;2024-03-02T09:50:59;11.80;99.90
5743;DHT22;2896;53.500;10.020;2024-03-02T09:53:28;9.20;99.90
5743;DHT22;2896;53.500;10.020;2024-03-02T09:55:57;12.20;99.90
5743;DHT22;2896;53.500;10.020;2024-03-02T09:58:24;12.30;19.50
5743;DHT22;2896;53.500;10.020;2024-03-02T10:00:51;12.40;1.00
5743;DHT22;2896;53.500;10.020;2024-03-02T10:03:19;12.30;1.00
5743;DHT22;2896;53.500;10.020;2024-03-02T10:05:47;12.30;1.00
5743;DHT22;2896;53.500;10.020;2024-03-02T10:08:13;12.40;1.00
5743;DHT22;2896;53.500;10.020;2024-03-02T10:10:41;12.60;7.50
5743;DHT22;2896;53.500;10.020;2024-03-02T10:13:10;12.70;1.00
5743;DHT22;2896;53.500;10.020;2024-03-02T10:15:38;13.00;1.00
5743;DHT22;2896;53.500;10.020;2024-03-02T10:18:08;13.10;1.00
5743;DHT22;2896;53.500;10.020;2024-03-02T10:20:37;11.50;99.90
5743;DHT22;2896;53.500;10.020;2024-03-02T10:23:11;13.30;1.00
5743;DHT22;2896;53.500;10.020;2024-03-02T10:25:38;13.40;99.90
5743;DHT22;2896;53.500;10.020;2024-03-02T10:28:05;13.50;99.90
5743;DHT22;2896;53.500;10.020;2024-03-02T10:30:32;13.60;99.90
5743;DHT22;2896;53.500;10.020;2024-03-02T10:33:00;13.60;99.90
5743;DHT22;2896;53.500;10.020;2024-03-02T10:35:27;13.70;99.90
5743;DHT22;2896;53.500;10.020;2024-03-02T10:37:55;13.80;1.00
5743;DHT22;2896;53.500;10.020;2024-03-02T10:40:22;13.80;99.90
5743;DHT22;2896;53.500;10.020;2024-03-02T10:42:50;14.00;99.90
5743;DHT22;2896;53.500;10.020;2024-03-02T10:45:17;14.10;99.90
5743;DHT22;2896;53.500;10.020;2024-03-02T10:47:47;14.10;99.90
5743;DHT22;2896;53.500;10.020;2024-03-02T10:50:13;14.00;99.90
5743;DHT22;2896;53.500;10.020;2024-03-02T10:52:40;14.10;99.90
5743;DHT22;2896;53.500;10.020;2024-03-02T10:55:09;14.30;1.00
5743;DHT22;2896;53.500;10.020;2024-03-02T10:57:41;14.40;99.90
5743;DHT22;2896;53.500;10.020;2024-03-02T11:00:12;14.50;70.80
5743;DHT22;2896;53.500;10.020;2024-03-02T11:02:43;14.30;1.00
5743;DHT22;2896;53.500;10.020;2024-03-02T11:05:15;14.40;1.00
5743;DHT22;2896;53.500;10.020;2024-03-02T11:07:43;14.40;1.00
5743;DHT22;2896;53.500;10.020;2024-03-02T11:10:12;14.40;1.00
5743;DHT22;2896;53.500;10.020;2024-03-02T11:12:44;14.40;1.00
5743;DHT22;2896;53.500;10.020;2024-03-02T11:15:17;14.50;1.00
5743;DHT22;2896;53.500;10.020;2024-03-02T11:17:45;14.50;1.00
5743;DHT22;2896;53.500;10.020;2024-03-02T11:20:13;14.40;1.00
5743;DHT22;2896;53.500;10.020;2024-03-02T11:22:42;14.30;1.00
5743;DHT22;2896;53.500;10.020;2024-03-02T11:25:24;14.30;1.00
5743;DHT22;2896;53.500;10.020;2024-03-02T11:28:04;14.20;1.00
5743;DHT22;2896;53.500;10.020;2024-03-02T11:30:50;14.30;18.10
5743;DHT22;2896;53.500;10.020;2024-03-02T11:33:23;14.30;99.90
5743;DHT22;2896;53.500;10.020;2024-03-02T11:35:50;14.30;1.00
5743;DHT22;2896;53.500;10.020;2024-03-02T11:38:17;14.40;99.90
5743;DHT22;2896;53.500;10.020;2024-03-02T11:40:46;14.40;1.00
5743;DHT22;2896;53.500;10.020;2024-03-02T11:43:13;14.60;1.00
5743;DHT22;2896;53.500;10.020;2024-03-02T11:45:42;14.50;1.00
5743;DHT22;2896;53.500;10.020;2024-03-02T11:48:11;14.40;1.00
5743;DHT22;2896;53.500;10.020;2024-03-02T11:50:41;14.50;1.00
5743;DHT22;2896;53.500;10.020;2024-03-02T11:53:09;14.40;1.00
5743;DHT22;2896;53.500;10.020;2024-03-02T11:55:38;14.40;1.00
5743;DHT22;2896;53.500;10.020;2024-03-02T11:58:07;14.50;1.00
5743;DHT22;2896;53.500;10.020;2024-03-02T12:00:34;14.50;1.00
5743;DHT22;2896;53.500;10.020;2024-03-02T12:03:02;14.50;99.90
5743;DHT22;2896;53.500;10.020;2024-03-02T12:05:30;14.40;99.90
5743;DHT22;2896;53.500;10.020;2024-03-02T12:07:57;14.40;99.90
5743;DHT22;2896;53.500;10.020;2024-03-02T12:10:24;14.40;99.90
5743;DHT22;2896;53.500;10.020;2024-03-02T12:12:56;14.60;99.90
5743;DHT22;2896;53.500;10.020;2024-03-02T12:15:25;14.70;30.80
5743;DHT22;2896;53.500;10.020;2024-03-02T12:17:56;14.60;72.00
5743;DHT22;2896;53.500;10.020;2024-03-02T12:20:23;14.80;95.70
5743;DHT22;2896;53.500;10.020;2024-03-02T12:22:51;14.80;53.60
5743;DHT22;2896;53.500;10.020;2024-03-02T12:25:19;14.70;1.00
5743;DHT22;2896;53.500;10.020;2024-03-02T12:27:46;14.80;1.00
5743;DHT22;2896;53.500;10.020;2024-03-02T12:30:12;14.80;1.00
5743;DHT22;2896;53.500;10.020;2024-03-02T12:32:41;14.80;1.00
5743;DHT22;2896;53.500;10.020;2024-03-02T12:35:08;14.90;1.00
5743;DHT22;2896;53.500;10.020;2024-03-02T12:37:42;14.90;1.00
5743;DHT22;2896;53.500;10.020;2024-03-02T12:40:10;14.90;1.00
5743;DHT22;2896;53.500;10.020;2024-03-02T12:42:37;14.90;1.00
5743;DHT22;2896;53.500;10.020;2024-03-02T12:45:05;14.80;1.00
5743;DHT22;2896;53.500;10.020;2024-03-02T12:47:32;14.80;1.00
5743;DHT22;2896;53.500;10.020;2024-03-02T12:50:00;14.80;1.00
5743;DHT22;2896;53.500;10.020;2024-03-02T12:52:27;14.80;1.00
5743;DHT22;2896;53.500;10.020;2024-03-02T12:54:54;15.00;1.00
5743;DHT22;2896;53.500;10.020;2024-03-02T12:57:25;14.90;1.00
5743;DHT22;2896;53.500;10.020;2024-03-02T12:59:54;14.90;1.00
5743;DHT22;2896;53.500;10.020;2024-03-02T13:02:23;14.80;1.00
5743;DHT22;2896;53.500;10.020;2024-03-02T13:04:53;14.70;1.00
5743;DHT22;2896;53.500;10.020;2024-03-02T13:07:21;14.70;1.00
5743;DHT22;2896;53.500;10.020;2024-03-02T13:09:49;14.70;1.00
5743;DHT22;2896;53.500;10.020;2024-03-02T13:12:16;14.70;1.00
5743;DHT22;2896;53.500;10.020;2024-03-02T13:14:43;14.90;1.00
5743;DHT22;2896;53.500;10.020;2024-03-02T13:17:09;14.90;1.00
5743;DHT22;2896;53.500;10.020;2024-03-02T13:19:36;14.80;1.00
5743;DHT22;2896;53.500;10.020;2024-03-02T13:22:03;14.80;1.00
5743;DHT22;2896;53.500;10.020;2024-03-02T13:24:31;14.80;1.00
5743;DHT22;2896;53.500;10.020;2024-03-02T13:26:58;14.90;1.00
5743;DHT22;2896;53.500;10.020;2024-03-02T13:29:25;14.90;1.00
5743;DHT22;2896;53.500;10.020;2024-03-02T13:31:53;14.70;1.00
5743;DHT22;2896;53.500;10.020;2024-03-02T13:34:19;14.80;1.00
5743;DHT22;2896;53.500;10.020;2024-03-02T13:36:46;14.80;1.00
5743;DHT22;2896;53.500;10.020;2024-03-02T13:39:13;14.80;1.00
5743;DHT22;2896;53.500;10.020;2024-03-02T13:41:42;14.80;1.00
5743;DHT22;2896;53.500;10.020;2024-03-02T13:44:17;14.80;1.00
5743;DHT22;2896;53.500;10.020;2024-03-02T13:46:44;14.90;2.80
5743;DHT22;2896;53.500;10.020;2024-03-02T13:49:11;15.00;90.40
5743;DHT22;2896;53.500;10.020;2024-03-02T13:51:37;15.30;1.00
5743;DHT22;2896;53.500;10.020;2024-03-02T13:54:04;15.30;1.00
5743;DHT22;2896;53.500;10.020;2024-03-02T13:56:31;15.40;1.00
5743;DHT22;2896;53.500;10.020;2024-03-02T13:58:59;15.60;1.00
5743;DHT22;2896;53.500;10.020;2024-03-02T14:01:26;15.80;1.00
5743;DHT22;2896;53.500;10.020;2024-03-02T14:03:52;16.00;1.00
5743;DHT22;2896;53.500;10.020;2024-03-02T14:06:21;16.50;99.90
5743;DHT22;2896;53.500;10.020;2024-03-02T14:08:47;16.80;99.90
5743;DHT22;2896;53.500;10.020;2024-03-02T14:11:14;17.00;99.90
5743;DHT22;2896;53.500;10.020;2024-03-02T14:13:42;17.00;99.90
5743;DHT22;2896;53.500;10.020;2024-03-02T14:16:11;16.70;55.40
5743;DHT22;2896;53.500;10.020;2024-03-02T14:18:37;16.60;22.90
5743;DHT22;2896;53.500;10.020;2024-03-02T14:21:04;16.40;38.00
5743;DHT22;2896;53.500;10.020;2024-03-02T14:23:31;16.10;1.00
5743;DHT22;2896;53.500;10.020;2024-03-02T14:25:57;15.90;1.00
5743;DHT22;2896;53.500;10.020;2024-03-02T14:28:24;15.90;1.00
5743;DHT22;2896;53.500;10.020;2024-03-02T14:30:51;15.70;1.00
5743;DHT22;2896;53.500;10.020;2024-03-02T14:33:20;15.60;1.00
5743;DHT22;2896;53.500;10.020;2024-03-02T14:35:47;15.60;1.00
5743;DHT22;2896;53.500;10.020;2024-03-02T14:38:14;15.60;1.00
5743;DHT22;2896;53.500;10.020;2024-03-02T14:40:40;15.60;1.00
5743;DHT22;2896;53.500;10.020;2024-03-02T14:43:08;15.60;1.00
5743;DHT22;2896;53.500;10.020;2024-03-02T14:45:34;15.50;1.00
5743;DHT22;2896;53.500;10.020;2024-03-02T14:48:02;15.50;1.00
5743;DHT22;2896;53.500;10.020;2024-03-02T14:50:31;15.50;1.00
5743;DHT22;2896;53.500;10.020;2024-03-02T14:52:58;15.40;1.00
5743;DHT22;2896;53.500;10.020;2024-03-02T14:55:26;15.30;1.00
5743;DHT22;2896;53.500;10.020;2024-03-02T14:57:53;15.20;1.00
5743;DHT22;2896;53.500;10.020;2024-03-02T15:00:20;15.20;1.00
5743;DHT22;2896;53.500;10.020;2024-03-02T15:02:46;15.20;1.00
5743;DHT22;2896;53.500;10.020;2024-03-02T15:05:13;15.20;1.00
5743;DHT22;2896;53.500;10.020;2024-03-02T15:07:41;15.40;1.00
5743;DHT22;2896;53.500;10.020;2024-03-02T15:10:08;15.40;1.00
5743;DHT22;2896;53.500;10.020;2024-03-02T15:12:35;15.60;1.00
5743;DHT22;2896;53.500;10.020;2024-03-02T15:15:03;15.50;1.00
5743;DHT22;2896;53.500;10.020;2024-03-02T15:17:30;15.50;1.00
5743;DHT22;2896;53.500;10.020;2024-03-02T15:19:57;15.40;1.00
5743;DHT22;2896;53.500;10.020;2024-03-02T15:22:24;15.40;1.00
5743;DHT22;2896;53.500;10.020;2024-03-02T15:24:52;15.40;99.90
5743;DHT22;2896;53.500;10.020;2024-03-02T15:27:19;15.30;99.90
5743;DHT22;2896;53.500;10.020;2024-03-02T15:29:46;15.20;99.90
5743;DHT22;2896;53.500;10.020;2024-03-02T15:32:13;14.90;1.00
5743;DHT22;2896;53.500;10.020;2024-03-02T15:34:40;14.80;99.90
5743;DHT22;2896;53.500;10.020;2024-03-02T15:37:08;14.60;1.00
5743;DHT22;2896;53.500;10.020;2024-03-02T15:39:35;14.60;99.90
5743;DHT22;2896;53.500;10.020;2024-03-02T15:42:03;14.50;99.90
5743;DHT22;2896;53.500;10.020;2024-03-02T15:44:30;14.50;1.00
5743;DHT22;2896;53.500;10.020;2024-03-02T15:46:57;14.40;1.00
5743;DHT22;2896;53.500;10.020;2024-03-02T15:49:24;14.30;99.90
5743;DHT22;2896;53.500;10.020;2024-03-02T15:51:51;14.10;99.90
5743;DHT22;2896;53.500;10.020;2024-03-02T15:54:19;14.00;1.00
5743;DHT22;2896;53.500;10.020;2024-03-02T15:56:46;13.80;1.00
5743;DHT22;2896;53.500;10.020;2024-03-02T15:59:14;13.70;71.70
5743;DHT22;2896;53.500;10.020;2024-03-02T16:01:41;13.70;6.80
5743;DHT22;2896;53.500;10.020;2024-03-02T16:04:08;13.60;99.90
5743;DHT22;2896;53.500;10.020;2024-03-02T16:06:35;15.80;99.90
5743;DHT22;2896;53.500;10.020;2024-03-02T16:09:02;14.40;99.90
5743;DHT22;2896;53.500;10.020;2024-03-02T16:11:30;13.30;99.90
5743;DHT22;2896;53.500;10.020;2024-03-02T16:13:57;13.20;99.90
5743;DHT22;2896;53.500;10.020;2024-03-02T16:16:25;13.90;99.90
5743;DHT22;2896;53.500;10.020;2024-03-02T16:18:52;14.10;99.90
5743;DHT22;2896;53.500;10.020;2024-03-02T16:21:18;15.80;1.00
5743;DHT22;2896;53.500;10.020;2024-03-02T16:23:50;14.10;1.00
5743;DHT22;2896;53.500;10.020;2024-03-02T16:26:17;12.80;1.00
5743;DHT22;2896;53.500;10.020;2024-03-02T16:28:43;12.70;1.00
5743;DHT22;2896;53.500;10.020;2024-03-02T16:31:10;15.50;1.00
5743;DHT22;2896;53.500;10.020;2024-03-02T16:33:42;12.40;1.00
5743;DHT22;2896;53.500;10.020;2024-03-02T16:36:08;12.30;1.00